createdAt,value
2018-04-13T00:01:34.244Z,42.63
2018-04-13T00:04:01.811Z,34.87
2018-04-13T00:06:29.756Z,37.10
2018-04-13T00:08:57.370Z,32.83
2018-04-13T00:11:25.217Z,33.10
2018-04-13T00:13:52.819Z,31.70
2018-04-13T00:16:20.341Z,32.03
2018-04-13T00:18:47.895Z,34.43
2018-04-13T00:21:15.445Z,36.13
2018-04-13T00:23:43.122Z,35.13
2018-04-13T00:26:10.685Z,37.07
2018-04-13T00:28:38.284Z,37.60
2018-04-13T00:31:05.819Z,51.37
2018-04-13T00:33:33.419Z,40.60
2018-04-13T00:36:00.979Z,38.97
2018-04-13T00:38:28.557Z,40.73
2018-04-13T00:40:56.107Z,41.13
2018-04-13T00:43:23.717Z,39.50
2018-04-13T00:45:51.253Z,36.60
2018-04-13T00:48:18.831Z,36.90
2018-04-13T00:50:46.373Z,37.23
2018-04-13T00:53:25.696Z,34.80
2018-04-13T00:55:53.274Z,39.67
2018-04-13T00:58:21.125Z,38.10
2018-04-13T01:00:48.717Z,37.40
2018-04-13T01:03:16.272Z,36.53
2018-04-13T01:05:43.816Z,37.50
2018-04-13T01:08:11.363Z,35.87
2018-04-13T01:10:38.928Z,36.07
2018-04-13T01:13:06.485Z,35.83
2018-04-13T01:15:34.073Z,35.60
2018-04-13T01:18:01.619Z,37.93
2018-04-13T01:20:29.211Z,38.30
2018-04-13T01:22:56.810Z,37.87
2018-04-13T01:25:24.366Z,37.57
2018-04-13T01:27:51.902Z,30.23
2018-04-13T01:30:19.462Z,26.23
2018-04-13T01:32:47.005Z,26.33
2018-04-13T01:35:14.590Z,25.70
2018-04-13T01:37:42.145Z,25.23
2018-04-13T01:40:09.754Z,26.70
2018-04-13T01:42:37.301Z,26.73
2018-04-13T01:45:04.866Z,27.87
2018-04-13T01:47:32.414Z,29.13
2018-04-13T01:50:00.010Z,29.17
2018-04-13T01:52:27.571Z,30.07
2018-04-13T01:54:55.308Z,29.50
2018-04-13T01:57:22.852Z,30.17
2018-04-13T01:59:50.476Z,29.97
2018-04-13T02:02:18.040Z,28.77
2018-04-13T02:04:46.288Z,28.47
2018-04-13T02:07:13.842Z,29.97
2018-04-13T02:09:41.966Z,28.63
2018-04-13T02:12:09.791Z,28.57
2018-04-13T02:14:37.851Z,30.00
2018-04-13T02:17:05.414Z,30.13
2018-04-13T02:19:32.979Z,29.30
2018-04-13T02:22:00.523Z,30.87
2018-04-13T02:24:28.100Z,32.27
2018-04-13T02:26:55.659Z,32.47
2018-04-13T02:29:23.247Z,32.87
2018-04-13T02:31:50.792Z,32.60
2018-04-13T02:34:18.445Z,34.30
2018-04-13T02:36:46.041Z,32.30
2018-04-13T02:39:13.593Z,31.53
2018-04-13T02:41:41.209Z,33.03
2018-04-13T02:44:25.860Z,32.53
2018-04-13T02:46:53.491Z,29.67
2018-04-13T02:49:21.069Z,31.70
2018-04-13T02:51:48.615Z,30.20
2018-04-13T02:54:16.159Z,30.73
2018-04-13T02:56:43.704Z,29.80
2018-04-13T02:59:11.263Z,28.90
2018-04-13T03:01:38.841Z,28.93
2018-04-13T03:04:06.423Z,28.27
2018-04-13T03:06:33.976Z,28.63
2018-04-13T03:09:01.576Z,29.40
2018-04-13T03:11:29.120Z,31.10
2018-04-13T03:13:56.732Z,30.90
2018-04-13T03:16:24.291Z,31.30
2018-04-13T03:18:51.969Z,31.83
2018-04-13T03:21:19.515Z,30.67
2018-04-13T03:23:47.176Z,31.97
2018-04-13T03:26:14.717Z,28.63
2018-04-13T03:28:42.295Z,28.60
2018-04-13T03:31:09.832Z,28.67
2018-04-13T03:33:37.420Z,28.60
2018-04-13T03:36:04.965Z,28.37
2018-04-13T03:38:32.525Z,28.10
2018-04-13T03:41:20.182Z,28.77
2018-04-13T03:43:47.769Z,29.30
2018-04-13T03:46:15.316Z,28.57
2018-04-13T03:48:43.526Z,28.33
2018-04-13T03:51:11.045Z,27.37
2018-04-13T03:53:39.152Z,27.90
2018-04-13T03:56:06.702Z,27.47
2018-04-13T03:58:34.606Z,26.87
2018-04-13T04:01:02.280Z,27.17
2018-04-13T04:03:30.039Z,29.70
2018-04-13T04:05:57.567Z,28.93
2018-04-13T04:08:25.297Z,26.37
2018-04-13T04:10:53.003Z,28.17
2018-04-13T04:13:20.841Z,28.00
2018-04-13T04:15:48.742Z,28.40
2018-04-13T04:18:16.272Z,30.90
2018-04-13T04:20:55.677Z,32.77
2018-04-13T04:23:35.726Z,38.07
2018-04-13T04:26:21.819Z,39.60
2018-04-13T04:28:49.859Z,42.57
2018-04-13T04:31:17.421Z,44.07
2018-04-13T04:33:45.425Z,43.77
2018-04-13T04:36:13.012Z,55.63
2018-04-13T04:38:40.586Z,58.67
2018-04-13T04:41:08.240Z,55.70
2018-04-13T04:43:35.794Z,63.47
2018-04-13T04:46:03.491Z,52.20
2018-04-13T04:48:31.033Z,44.47
2018-04-13T04:50:59.130Z,44.20
2018-04-13T04:53:26.686Z,44.63
2018-04-13T04:55:54.254Z,44.00
2018-04-13T04:58:21.884Z,43.83
2018-04-13T05:00:49.890Z,46.23
2018-04-13T05:03:17.840Z,51.03
2018-04-13T05:05:45.841Z,51.50
2018-04-13T05:08:13.413Z,58.43
2018-04-13T05:10:41.182Z,54.93
2018-04-13T05:13:08.772Z,59.43
2018-04-13T05:15:36.300Z,62.07
2018-04-13T05:18:03.868Z,58.57
2018-04-13T05:20:31.425Z,60.07
2018-04-13T05:22:59.045Z,54.77
2018-04-13T05:25:26.591Z,59.37
2018-04-13T05:27:54.171Z,64.23
2018-04-13T05:30:21.742Z,63.67
2018-04-13T05:32:49.317Z,59.80
2018-04-13T05:35:17.005Z,62.70
2018-04-13T05:37:44.566Z,59.97
2018-04-13T05:40:12.177Z,63.27
2018-04-13T05:42:39.747Z,62.97
2018-04-13T05:45:07.666Z,58.83
2018-04-13T05:47:37.740Z,57.83
2018-04-13T05:50:05.351Z,50.17
2018-04-13T05:52:32.882Z,52.13
2018-04-13T05:55:00.487Z,58.67
2018-04-13T05:57:28.166Z,56.60
2018-04-13T05:59:56.421Z,56.00
2018-04-13T06:02:23.957Z,55.07
2018-04-13T06:04:52.420Z,51.37
2018-04-13T06:07:19.992Z,57.33
2018-04-13T06:09:47.833Z,55.23
2018-04-13T06:12:15.428Z,55.20
2018-04-13T06:14:42.995Z,59.63
2018-04-13T06:17:10.655Z,61.13
2018-04-13T06:19:38.209Z,61.20
2018-04-13T06:22:05.807Z,62.00
2018-04-13T06:24:33.377Z,61.20
2018-04-13T06:27:01.028Z,61.93
2018-04-13T06:29:28.606Z,66.13
2018-04-13T06:31:56.247Z,63.57
2018-04-13T06:34:23.830Z,61.33
2018-04-13T06:36:55.045Z,68.33
2018-04-13T06:39:19.449Z,70.53
2018-04-13T06:41:47.022Z,69.43
2018-04-13T06:44:14.590Z,69.70
2018-04-13T06:46:42.130Z,75.47
2018-04-13T06:49:09.669Z,75.43
2018-04-13T06:51:37.234Z,76.53
2018-04-13T06:54:04.776Z,72.57
2018-04-13T06:56:33.209Z,71.73
2018-04-13T06:59:00.775Z,73.33
2018-04-13T07:01:28.785Z,75.70
2018-04-13T07:03:56.341Z,70.80
2018-04-13T07:06:23.907Z,73.87
2018-04-13T07:08:51.450Z,84.53
2018-04-13T07:11:18.989Z,77.53
2018-04-13T07:13:46.566Z,79.90
2018-04-13T07:16:14.094Z,76.53
2018-04-13T07:18:41.678Z,77.63
2018-04-13T07:21:09.287Z,77.20
2018-04-13T07:23:36.952Z,74.97
2018-04-13T07:26:04.514Z,76.33
2018-04-13T07:28:32.074Z,77.37
2018-04-13T07:30:59.638Z,74.07
2018-04-13T07:33:27.259Z,75.40
2018-04-13T07:35:55.225Z,76.20
2018-04-13T07:38:22.416Z,75.20
2018-04-13T07:40:49.954Z,74.57
2018-04-13T07:43:17.519Z,74.27
2018-04-13T07:45:45.345Z,77.00
2018-04-13T07:48:13.124Z,77.27
2018-04-13T07:50:40.690Z,75.87
2018-04-13T07:53:08.692Z,74.30
2018-04-13T07:55:36.270Z,76.90
2018-04-13T07:58:04.255Z,76.93
2018-04-13T08:00:31.783Z,75.37
2018-04-13T08:02:59.719Z,79.90
2018-04-13T08:05:27.316Z,80.27
2018-04-13T08:07:54.872Z,79.33
2018-04-13T08:10:22.429Z,79.30
2018-04-13T08:12:49.984Z,79.93
2018-04-13T08:15:17.522Z,75.50
2018-04-13T08:17:45.077Z,76.40
2018-04-13T08:20:12.629Z,73.83
2018-04-13T08:22:40.180Z,76.83
2018-04-13T08:25:07.737Z,74.50
2018-04-13T08:27:35.290Z,72.53
2018-04-13T08:30:02.874Z,71.70
2018-04-13T08:32:30.433Z,70.67
2018-04-13T08:34:57.983Z,69.23
2018-04-13T08:37:25.535Z,68.30
2018-04-13T08:39:53.141Z,68.17
2018-04-13T08:42:20.709Z,69.50
2018-04-13T08:44:48.297Z,69.47
2018-04-13T08:47:15.897Z,69.93
2018-04-13T08:49:43.482Z,70.97
2018-04-13T08:52:11.014Z,69.67
2018-04-13T08:54:38.604Z,69.10
2018-04-13T08:57:06.192Z,71.13
2018-04-13T08:59:33.774Z,69.20
2018-04-13T09:02:01.302Z,71.37
2018-04-13T09:04:28.872Z,73.10
2018-04-13T09:06:56.424Z,66.40
2018-04-13T09:09:23.991Z,66.47
2018-04-13T09:11:51.537Z,62.70
2018-04-13T09:14:19.124Z,60.23
2018-04-13T09:16:46.758Z,54.73
2018-04-13T09:19:14.314Z,49.60
2018-04-13T09:21:41.881Z,46.83
2018-04-13T09:24:09.451Z,46.70
2018-04-13T09:26:36.979Z,41.97
2018-04-13T09:29:04.547Z,41.67
2018-04-13T09:31:32.098Z,39.07
2018-04-13T09:33:59.687Z,35.70
2018-04-13T09:36:27.207Z,32.17
2018-04-13T09:38:54.850Z,27.73
2018-04-13T09:41:22.391Z,26.20
2018-04-13T09:43:49.955Z,20.17
2018-04-13T09:46:17.499Z,16.53
2018-04-13T09:48:45.054Z,15.30
2018-04-13T09:51:12.601Z,15.27
2018-04-13T09:53:40.135Z,15.63
2018-04-13T09:56:07.670Z,16.90
2018-04-13T09:58:35.229Z,16.27
2018-04-13T10:01:02.773Z,16.93
2018-04-13T10:03:36.139Z,17.87
2018-04-13T10:06:03.696Z,17.93
2018-04-13T10:08:31.246Z,17.23
2018-04-13T10:10:58.771Z,17.80
2018-04-13T10:13:26.323Z,16.83
2018-04-13T10:15:53.930Z,17.17
2018-04-13T10:18:21.489Z,18.50
2018-04-13T10:20:49.053Z,17.50
2018-04-13T10:23:16.612Z,18.60
2018-04-13T10:25:44.166Z,19.13
2018-04-13T10:28:11.725Z,18.87
2018-04-13T10:30:39.281Z,20.13
2018-04-13T10:33:07.231Z,20.17
2018-04-13T10:35:34.785Z,21.17
2018-04-13T10:38:02.735Z,21.63
2018-04-13T10:40:30.308Z,20.73
2018-04-13T10:42:58.220Z,19.93
2018-04-13T10:45:25.777Z,16.30
2018-04-13T10:47:53.349Z,16.90
2018-04-13T10:50:20.929Z,12.97
2018-04-13T10:52:48.471Z,14.37
2018-04-13T10:55:16.044Z,13.03
2018-04-13T10:57:43.618Z,13.60
2018-04-13T11:00:11.181Z,14.07
2018-04-13T11:02:38.744Z,13.80
2018-04-13T11:05:06.314Z,14.17
2018-04-13T11:07:33.846Z,13.47
2018-04-13T11:10:01.396Z,13.17
2018-04-13T11:12:28.933Z,13.73
2018-04-13T11:14:56.536Z,13.97
2018-04-13T11:17:24.103Z,14.57
2018-04-13T11:19:51.834Z,13.87
2018-04-13T11:22:19.393Z,13.47
2018-04-13T11:24:46.946Z,13.80
2018-04-13T11:27:14.507Z,12.90
2018-04-13T11:29:42.082Z,13.70
2018-04-13T11:32:09.649Z,13.93
2018-04-13T11:34:37.810Z,13.73
2018-04-13T11:37:05.363Z,13.80
2018-04-13T11:39:32.900Z,13.27
2018-04-13T11:42:00.436Z,12.10
2018-04-13T11:44:28.496Z,12.50
2018-04-13T11:46:56.053Z,13.03
2018-04-13T11:49:24.065Z,13.40
2018-04-13T11:51:51.680Z,13.20
2018-04-13T11:54:19.419Z,12.80
2018-04-13T11:56:46.998Z,13.90
2018-04-13T11:59:14.567Z,13.57
2018-04-13T12:01:42.110Z,13.97
2018-04-13T12:04:09.644Z,14.40
2018-04-13T12:06:37.212Z,13.93
2018-04-13T12:09:04.774Z,13.47
2018-04-13T12:11:32.355Z,13.80
2018-04-13T12:13:59.948Z,12.67
2018-04-13T12:16:27.511Z,13.13
2018-04-13T12:18:55.093Z,11.20
2018-04-13T12:21:22.666Z,11.47
2018-04-13T12:23:50.752Z,12.30
2018-04-13T12:26:18.636Z,11.87
2018-04-13T12:28:46.219Z,10.37
2018-04-13T12:31:13.795Z,10.17
2018-04-13T12:33:41.320Z,10.40
2018-04-13T12:36:08.962Z,10.43
2018-04-13T12:38:36.516Z,10.20
2018-04-13T12:41:04.538Z,8.30
2018-04-13T12:43:32.128Z,6.77
2018-04-13T12:45:59.983Z,6.10
2018-04-13T12:48:27.593Z,6.37
2018-04-13T12:50:55.432Z,6.70
2018-04-13T12:53:22.992Z,6.57
2018-04-13T12:55:50.550Z,6.23
2018-04-13T12:58:18.087Z,6.80
2018-04-13T13:00:45.680Z,6.93
2018-04-13T13:03:13.209Z,7.17
2018-04-13T13:05:40.747Z,6.67
2018-04-13T13:08:08.293Z,6.60
2018-04-13T13:10:35.819Z,5.90
2018-04-13T13:13:03.360Z,5.60
2018-04-13T13:15:30.911Z,4.80
2018-04-13T13:17:58.466Z,5.07
2018-04-13T13:20:26.011Z,5.93
2018-04-13T13:22:53.560Z,4.27
2018-04-13T13:25:21.223Z,4.23
2018-04-13T13:27:48.905Z,4.23
2018-04-13T13:30:16.446Z,4.60
2018-04-13T13:32:44.087Z,4.30
2018-04-13T13:35:11.657Z,4.23
2018-04-13T13:37:39.248Z,4.03
2018-04-13T13:40:06.781Z,5.53
2018-04-13T13:42:34.339Z,4.70
2018-04-13T13:45:01.876Z,5.67
2018-04-13T13:47:29.424Z,5.77
2018-04-13T13:49:56.970Z,6.10
2018-04-13T13:52:24.529Z,6.33
2018-04-13T13:54:52.083Z,6.00
2018-04-13T13:57:19.639Z,6.03
2018-04-13T13:59:47.182Z,5.90
2018-04-13T14:02:14.771Z,6.80
2018-04-13T14:04:42.319Z,6.20
2018-04-13T14:07:09.897Z,6.20
2018-04-13T14:09:37.417Z,6.27
2018-04-13T14:12:04.944Z,6.40
2018-04-13T14:14:32.541Z,5.90
2018-04-13T14:17:00.107Z,5.80
2018-04-13T14:19:27.642Z,5.50
2018-04-13T14:21:55.193Z,6.17
2018-04-13T14:24:22.733Z,6.13
2018-04-13T14:26:50.291Z,5.40
2018-04-13T14:29:17.837Z,6.07
2018-04-13T14:31:45.349Z,6.47
2018-04-13T14:34:12.904Z,6.50
2018-04-13T14:36:40.482Z,5.53
2018-04-13T14:39:08.066Z,6.13
2018-04-13T14:41:35.608Z,7.53
2018-04-13T14:44:03.202Z,6.90
2018-04-13T14:46:30.758Z,7.00
2018-04-13T14:48:58.319Z,8.90
2018-04-13T14:51:25.870Z,7.03
2018-04-13T14:53:53.438Z,6.87
2018-04-13T14:56:20.994Z,7.43
2018-04-13T14:58:48.554Z,7.07
2018-04-13T15:01:16.112Z,7.73
2018-04-13T15:03:43.675Z,8.43
2018-04-13T15:06:11.243Z,8.73
2018-04-13T15:08:38.793Z,8.40
2018-04-13T15:11:06.374Z,8.70
2018-04-13T15:13:33.891Z,9.37
2018-04-13T15:16:01.467Z,9.60
2018-04-13T15:18:29.207Z,10.00
2018-04-13T15:20:56.783Z,10.87
2018-04-13T15:23:24.334Z,11.03
2018-04-13T15:25:51.909Z,11.20
2018-04-13T15:28:19.476Z,13.07
2018-04-13T15:30:47.052Z,13.00
2018-04-13T15:33:16.250Z,13.43
2018-04-13T15:35:44.475Z,13.73
2018-04-13T15:38:13.763Z,13.13
2018-04-13T15:40:46.275Z,15.03
2018-04-13T15:43:14.529Z,14.77
2018-04-13T15:45:42.075Z,15.23
2018-04-13T15:48:10.286Z,15.87
2018-04-13T15:50:37.889Z,17.30
2018-04-13T15:53:05.434Z,18.87
2018-04-13T15:55:33.070Z,17.53
2018-04-13T15:58:00.636Z,18.33
2018-04-13T16:00:28.388Z,18.00
2018-04-13T16:02:55.945Z,18.60
2018-04-13T16:05:24.252Z,19.87
2018-04-13T16:07:51.814Z,20.50
2018-04-13T16:10:19.874Z,19.37
2018-04-13T16:12:47.407Z,18.33
2018-04-13T16:15:15.691Z,20.00
2018-04-13T16:17:43.312Z,18.60
2018-04-13T16:20:10.877Z,20.47
2018-04-13T16:22:38.531Z,19.43
2018-04-13T16:25:06.066Z,19.60
2018-04-13T16:27:34.437Z,19.93
2018-04-13T16:30:01.969Z,19.77
2018-04-13T16:32:30.117Z,20.23
2018-04-13T16:34:57.660Z,20.33
2018-04-13T16:37:27.954Z,19.43
2018-04-13T16:39:55.923Z,20.07
2018-04-13T16:42:23.521Z,18.80
2018-04-13T16:44:51.137Z,19.53
2018-04-13T16:47:18.844Z,19.33
2018-04-13T16:49:46.400Z,20.83
2018-04-13T16:52:14.658Z,20.83
2018-04-13T16:54:42.216Z,22.70
2018-04-13T16:57:10.388Z,21.53
2018-04-13T16:59:37.940Z,21.77
2018-04-13T17:02:06.018Z,20.87
2018-04-13T17:04:33.626Z,21.10
2018-04-13T17:07:01.227Z,20.90
2018-04-13T17:09:28.792Z,21.80
2018-04-13T17:11:56.358Z,20.60
2018-04-13T17:14:24.072Z,21.87
2018-04-13T17:16:51.630Z,21.60
2018-04-13T17:19:19.915Z,21.60
2018-04-13T17:21:47.465Z,22.87
2018-04-13T17:24:15.433Z,21.93
2018-04-13T17:26:43.009Z,23.43
2018-04-13T17:29:11.538Z,23.07
2018-04-13T17:31:39.974Z,21.83
2018-04-13T17:34:08.448Z,23.37
2018-04-13T17:36:36.208Z,21.37
2018-04-13T17:39:03.812Z,23.77
2018-04-13T17:41:31.361Z,23.37
2018-04-13T17:43:59.082Z,23.37
2018-04-13T17:46:26.715Z,22.37
2018-04-13T17:48:54.887Z,23.53
2018-04-13T17:51:22.443Z,23.23
2018-04-13T17:53:50.453Z,23.77
2018-04-13T17:56:18.003Z,22.27
2018-04-13T17:58:45.874Z,24.73
2018-04-13T18:01:13.435Z,23.73
2018-04-13T18:03:41.381Z,25.90
2018-04-13T18:06:09.028Z,23.23
2018-04-13T18:08:36.571Z,24.50
2018-04-13T18:11:04.205Z,24.30
2018-04-13T18:13:31.836Z,25.30
2018-04-13T18:15:59.409Z,26.07
2018-04-13T18:18:27.978Z,25.77
2018-04-13T18:20:56.087Z,25.27
2018-04-13T18:23:23.846Z,25.83
2018-04-13T18:25:51.902Z,27.03
2018-04-13T18:28:19.474Z,27.77
2018-04-13T18:30:47.025Z,25.37
2018-04-13T18:33:14.648Z,26.37
2018-04-13T18:35:42.217Z,25.80
2018-04-13T18:38:09.794Z,25.73
2018-04-13T18:40:37.337Z,24.40
2018-04-13T18:43:05.013Z,25.20
2018-04-13T18:45:32.593Z,27.40
2018-04-13T18:48:00.160Z,26.57
2018-04-13T18:50:27.715Z,26.13
2018-04-13T18:52:55.393Z,26.30
2018-04-13T18:55:22.954Z,26.87
2018-04-13T18:57:50.506Z,23.63
2018-04-13T19:00:18.054Z,25.40
2018-04-13T19:02:45.743Z,25.60
2018-04-13T19:05:13.347Z,24.27
2018-04-13T19:07:41.472Z,27.17
2018-04-13T19:10:09.022Z,28.17
2018-04-13T19:12:36.616Z,29.37
2018-04-13T19:15:04.150Z,28.70
2018-04-13T19:17:31.803Z,28.37
2018-04-13T19:19:59.363Z,28.30
2018-04-13T19:22:26.995Z,28.57
2018-04-13T19:24:55.055Z,26.80
2018-04-13T19:27:22.788Z,24.77
2018-04-13T19:29:50.797Z,26.80
2018-04-13T19:32:18.408Z,24.83
2018-04-13T19:34:45.960Z,26.30
2018-04-13T19:37:13.579Z,27.77
2018-04-13T19:39:41.122Z,25.73
2018-04-13T19:42:09.505Z,25.10
2018-04-13T19:44:37.056Z,25.83
2018-04-13T19:47:05.024Z,24.57
2018-04-13T19:49:32.624Z,24.73
2018-04-13T19:52:00.848Z,25.07
2018-04-13T19:54:28.464Z,30.20
2018-04-13T19:56:56.073Z,24.03
2018-04-13T19:59:24.463Z,22.87
2018-04-13T20:01:52.026Z,24.27
2018-04-13T20:04:20.140Z,26.97
2018-04-13T20:06:47.770Z,25.80
2018-04-13T20:09:15.872Z,27.17
2018-04-13T20:11:43.464Z,27.50
2018-04-13T20:14:11.060Z,25.97
2018-04-13T20:16:38.785Z,24.60
2018-04-13T20:19:06.313Z,23.93
2018-04-13T20:21:33.901Z,23.60
2018-04-13T20:24:01.460Z,23.93
2018-04-13T20:26:29.800Z,24.50
2018-04-13T20:28:57.372Z,23.70
2018-04-13T20:31:25.397Z,25.23
2018-04-13T20:33:52.949Z,23.10
2018-04-13T20:36:21.005Z,24.63
2018-04-13T20:38:48.621Z,24.37
2018-04-13T20:41:16.408Z,25.03
2018-04-13T20:43:43.989Z,24.60
2018-04-13T20:46:11.651Z,24.77
2018-04-13T20:48:39.335Z,25.50
2018-04-13T20:51:06.869Z,25.67
2018-04-13T20:53:34.463Z,25.37
2018-04-13T20:56:01.998Z,24.60
2018-04-13T20:58:29.549Z,26.67
2018-04-13T21:00:57.105Z,25.30
2018-04-13T21:03:24.690Z,25.50
2018-04-13T21:05:52.239Z,30.77
2018-04-13T21:08:19.805Z,28.07
2018-04-13T21:10:47.410Z,25.80
2018-04-13T21:13:15.050Z,27.13
2018-04-13T21:15:42.605Z,27.63
2018-04-13T21:18:10.209Z,27.40
2018-04-13T21:20:37.768Z,29.20
2018-04-13T21:23:05.364Z,27.07
2018-04-13T21:25:32.918Z,28.23
2018-04-13T21:28:00.516Z,27.33
2018-04-13T21:30:28.138Z,26.90
2018-04-13T21:32:56.417Z,27.47
2018-04-13T21:35:24.008Z,28.07
2018-04-13T21:37:52.117Z,28.83
2018-04-13T21:40:19.676Z,29.10
2018-04-13T21:42:47.549Z,26.40
2018-04-13T21:45:15.107Z,27.83
2018-04-13T21:47:43.080Z,27.70
2018-04-13T21:50:10.615Z,27.93
2018-04-13T21:52:38.159Z,28.37
2018-04-13T21:55:05.829Z,28.13
2018-04-13T21:57:33.354Z,29.70
2018-04-13T22:00:00.930Z,29.27
2018-04-13T22:02:28.505Z,28.73
2018-04-13T22:04:56.082Z,29.10
2018-04-13T22:07:23.622Z,30.07
2018-04-13T22:09:51.198Z,30.47
2018-04-13T22:12:30.599Z,28.70
2018-04-13T22:14:58.801Z,32.53
2018-04-13T22:17:26.351Z,31.73
2018-04-13T22:19:53.905Z,31.83
2018-04-13T22:22:21.469Z,32.10
2018-04-13T22:24:49.033Z,31.80
2018-04-13T22:27:16.593Z,31.40
2018-04-13T22:29:44.141Z,32.00
2018-04-13T22:32:11.670Z,33.87
2018-04-13T22:34:39.228Z,33.03
2018-04-13T22:37:06.812Z,32.57
2018-04-13T22:39:34.366Z,34.20
2018-04-13T22:42:01.910Z,34.40
2018-04-13T22:44:29.792Z,32.97
2018-04-13T22:46:57.347Z,34.03
2018-04-13T22:49:24.888Z,35.57
2018-04-13T22:51:52.493Z,35.43
2018-04-13T22:54:20.044Z,35.10
2018-04-13T22:56:47.632Z,33.93
2018-04-13T22:59:15.162Z,35.20
2018-04-13T23:01:42.759Z,35.77
2018-04-13T23:04:10.366Z,33.47
2018-04-13T23:06:37.939Z,35.07
2018-04-13T23:09:05.481Z,35.83
2018-04-13T23:11:33.057Z,37.60
2018-04-13T23:14:00.599Z,34.80
2018-04-13T23:16:28.217Z,34.93
2018-04-13T23:18:55.766Z,33.73
2018-04-13T23:21:23.895Z,36.07
2018-04-13T23:23:51.440Z,34.77
2018-04-13T23:26:19.028Z,34.67
2018-04-13T23:28:46.590Z,36.53
2018-04-13T23:31:14.147Z,34.70
2018-04-13T23:33:41.687Z,36.30
2018-04-13T23:36:09.262Z,36.13
2018-04-13T23:38:36.827Z,37.13
2018-04-13T23:41:04.418Z,35.73
2018-04-13T23:43:31.973Z,35.80
2018-04-13T23:45:59.610Z,35.97
2018-04-13T23:48:27.215Z,36.13
2018-04-13T23:50:55.272Z,35.90
2018-04-13T23:53:22.829Z,34.30
2018-04-13T23:55:50.761Z,36.03
2018-04-13T23:58:18.307Z,37.47
